createdAt,value
2022-08-26T00:02:11.339Z,95674.00
2022-08-26T00:04:39.321Z,95680.00
2022-08-26T00:07:07.256Z,95676.00
2022-08-26T00:09:37.259Z,95676.00
2022-08-26T00:12:07.646Z,95679.00
2022-08-26T00:14:37.179Z,95675.00
2022-08-26T00:17:08.929Z,95675.00
2022-08-26T00:19:36.981Z,95671.00
2022-08-26T00:22:05.051Z,95666.00
2022-08-26T00:24:33.414Z,95664.00
2022-08-26T00:27:01.702Z,95679.00
2022-08-26T00:29:31.894Z,95679.00
2022-08-26T00:32:03.076Z,95671.00
2022-08-26T00:34:32.052Z,95666.00
2022-08-26T00:36:59.299Z,95664.00
2022-08-26T00:39:27.125Z,95662.00
2022-08-26T00:41:55.554Z,95664.00
2022-08-26T00:44:23.036Z,95659.00
2022-08-26T00:46:56.431Z,95662.00
2022-08-26T00:49:44.629Z,95669.00
2022-08-26T00:52:20.939Z,95658.00
2022-08-26T00:55:04.641Z,95660.00
2022-08-26T00:57:34.020Z,95652.00
2022-08-26T01:00:10.443Z,95656.00
2022-08-26T01:02:40.944Z,95654.00
2022-08-26T01:05:15.134Z,95656.00
2022-08-26T01:07:43.030Z,95661.00
2022-08-26T01:10:17.246Z,95665.00
2022-08-26T01:12:51.184Z,95649.00
2022-08-26T01:15:46.626Z,95661.00
2022-08-26T01:18:15.763Z,95656.00
2022-08-26T01:21:04.720Z,95659.00
2022-08-26T01:23:41.859Z,95662.00
2022-08-26T01:26:20.230Z,95666.00
2022-08-26T01:28:51.693Z,95664.00
2022-08-26T01:31:25.239Z,95664.00
2022-08-26T01:34:26.031Z,95664.00
2022-08-26T01:37:03.561Z,95663.00
2022-08-26T01:39:54.517Z,95663.00
2022-08-26T01:42:24.479Z,95668.00
2022-08-26T01:44:57.916Z,95662.00
2022-08-26T01:47:30.419Z,95664.00
2022-08-26T01:50:02.888Z,95664.00
2022-08-26T01:52:36.873Z,95661.00
2022-08-26T01:55:06.954Z,95675.00
2022-08-26T01:57:35.516Z,95669.00
2022-08-26T02:00:07.308Z,95671.00
2022-08-26T02:02:47.032Z,95662.00
2022-08-26T02:05:31.563Z,95669.00
2022-08-26T02:08:04.212Z,95662.00
2022-08-26T02:10:32.514Z,95673.00
2022-08-26T02:13:00.465Z,95670.00
2022-08-26T02:15:28.647Z,95670.00
2022-08-26T02:17:56.866Z,95670.00
2022-08-26T02:20:26.537Z,95679.00
2022-08-26T02:22:54.800Z,95679.00
2022-08-26T02:25:32.551Z,95677.00
2022-08-26T02:28:00.792Z,95676.00
2022-08-26T02:30:32.616Z,95674.00
2022-08-26T02:33:03.785Z,95669.00
2022-08-26T02:35:34.821Z,95660.00
2022-08-26T02:38:03.855Z,95662.00
2022-08-26T02:40:43.817Z,95664.00
2022-08-26T02:43:13.196Z,95664.00
2022-08-26T02:45:42.505Z,95645.00
2022-08-26T02:48:18.851Z,95655.00
2022-08-26T02:50:47.682Z,95646.00
2022-08-26T02:53:16.497Z,95651.00
2022-08-26T02:55:52.825Z,95659.00
2022-08-26T02:58:22.331Z,95651.00
2022-08-26T03:00:53.520Z,95654.00
2022-08-26T03:03:22.560Z,95649.00
2022-08-26T03:05:52.380Z,95656.00
2022-08-26T03:08:20.473Z,95656.00
2022-08-26T03:10:48.204Z,95652.00
2022-08-26T03:13:17.473Z,95647.00
2022-08-26T03:15:45.906Z,95656.00
2022-08-26T03:18:16.373Z,95655.00
2022-08-26T03:20:44.027Z,95646.00
2022-08-26T03:23:13.315Z,95641.00
2022-08-26T03:25:41.398Z,95644.00
2022-08-26T03:28:09.685Z,95643.00
2022-08-26T03:30:45.335Z,95642.00
2022-08-26T03:33:15.610Z,95647.00
2022-08-26T03:35:45.436Z,95642.00
2022-08-26T03:38:13.189Z,95644.00
2022-08-26T03:40:42.890Z,95633.00
2022-08-26T03:43:12.219Z,95642.00
2022-08-26T03:45:41.647Z,95641.00
2022-08-26T03:48:11.884Z,95638.00
2022-08-26T03:50:39.677Z,95637.00
2022-08-26T03:53:08.869Z,95645.00
2022-08-26T03:55:41.541Z,95634.00
2022-08-26T03:58:08.973Z,95640.00
2022-08-26T04:00:37.304Z,95647.00
2022-08-26T04:03:05.036Z,95639.00
2022-08-26T04:05:32.347Z,95642.00
2022-08-26T04:08:03.486Z,95641.00
2022-08-26T04:10:31.287Z,95639.00
2022-08-26T04:12:59.638Z,95636.00
2022-08-26T04:15:27.675Z,95642.00
2022-08-26T04:17:57.521Z,95630.00
2022-08-26T04:20:26.724Z,95636.00
2022-08-26T04:22:55.390Z,95641.00
2022-08-26T04:25:22.753Z,95642.00
2022-08-26T04:27:52.167Z,95636.00
2022-08-26T04:30:20.830Z,95641.00
2022-08-26T04:32:50.385Z,95638.00
2022-08-26T04:35:25.492Z,95635.00
2022-08-26T04:38:13.352Z,95636.00
2022-08-26T04:40:46.654Z,95641.00
2022-08-26T04:43:16.228Z,95644.00
2022-08-26T04:45:44.061Z,95634.00
2022-08-26T04:48:11.531Z,95636.00
2022-08-26T04:50:44.041Z,95640.00
2022-08-26T04:53:15.287Z,95640.00
2022-08-26T04:55:45.107Z,95646.00
2022-08-26T04:58:17.412Z,95647.00
2022-08-26T05:00:50.437Z,95650.00
2022-08-26T05:03:19.046Z,95649.00
2022-08-26T05:05:50.552Z,95651.00
2022-08-26T05:08:21.018Z,95651.00
2022-08-26T05:10:56.547Z,95648.00
2022-08-26T05:13:28.618Z,95647.00
2022-08-26T05:16:01.166Z,95648.00
2022-08-26T05:18:30.689Z,95651.00
2022-08-26T05:21:26.435Z,95651.00
2022-08-26T05:23:55.158Z,95650.00
2022-08-26T05:26:26.643Z,95650.00
2022-08-26T05:28:56.903Z,95649.00
2022-08-26T05:31:28.986Z,95652.00
2022-08-26T05:33:57.860Z,95652.00
2022-08-26T05:36:29.743Z,95654.00
2022-08-26T05:38:58.556Z,95661.00
2022-08-26T05:41:39.326Z,95645.00
2022-08-26T05:44:11.016Z,95658.00
2022-08-26T05:46:46.565Z,95663.00
2022-08-26T05:49:16.146Z,95660.00
2022-08-26T05:51:47.470Z,95661.00
2022-08-26T05:54:22.077Z,95663.00
2022-08-26T05:56:53.249Z,95658.00
2022-08-26T05:59:24.620Z,95653.00
2022-08-26T06:01:56.750Z,95649.00
2022-08-26T06:04:29.288Z,95661.00
2022-08-26T06:07:00.198Z,95659.00
2022-08-26T06:09:28.760Z,95666.00
2022-08-26T06:11:59.444Z,95664.00
2022-08-26T06:14:31.379Z,95670.00
2022-08-26T06:17:01.404Z,95666.00
2022-08-26T06:19:32.889Z,95674.00
2022-08-26T06:22:23.575Z,95667.00
2022-08-26T06:25:10.574Z,95669.00
2022-08-26T06:27:37.991Z,95683.00
2022-08-26T06:30:07.084Z,95672.00
2022-08-26T06:32:34.538Z,95681.00
2022-08-26T06:35:06.599Z,95679.00
2022-08-26T06:37:43.827Z,95680.00
2022-08-26T06:40:14.170Z,95675.00
2022-08-26T06:42:43.294Z,95673.00
2022-08-26T06:45:11.501Z,95673.00
2022-08-26T06:47:41.542Z,95669.00
2022-08-26T06:50:11.961Z,95680.00
2022-08-26T06:52:49.822Z,95669.00
2022-08-26T06:55:17.025Z,95677.00
2022-08-26T06:57:50.548Z,95685.00
2022-08-26T07:00:24.392Z,95673.00
2022-08-26T07:02:52.962Z,95675.00
2022-08-26T07:05:26.493Z,95674.00
2022-08-26T07:08:02.856Z,95676.00
2022-08-26T07:10:39.014Z,95670.00
2022-08-26T07:13:08.067Z,95670.00
2022-08-26T07:15:45.844Z,95678.00
2022-08-26T07:18:16.361Z,95674.00
2022-08-26T07:20:44.116Z,95673.00
2022-08-26T07:23:20.282Z,95686.00
2022-08-26T07:25:52.407Z,95683.00
2022-08-26T07:28:23.223Z,95677.00
2022-08-26T07:31:00.508Z,95679.00
2022-08-26T07:33:34.640Z,95696.00
2022-08-26T07:36:04.268Z,95685.00
2022-08-26T07:38:34.044Z,95687.00
2022-08-26T07:41:06.091Z,95678.00
2022-08-26T07:43:59.509Z,95683.00
2022-08-26T07:46:44.088Z,95684.00
2022-08-26T07:49:25.325Z,95682.00
2022-08-26T07:52:16.261Z,95672.00
2022-08-26T07:54:46.715Z,95681.00
2022-08-26T07:57:21.820Z,95680.00
2022-08-26T07:59:55.013Z,95677.00
2022-08-26T08:02:25.679Z,95684.00
2022-08-26T08:04:54.740Z,95681.00
2022-08-26T08:07:44.965Z,95686.00
2022-08-26T08:10:21.665Z,95689.00
2022-08-26T08:12:53.448Z,95687.00
2022-08-26T08:15:34.210Z,95692.00
2022-08-26T08:18:11.431Z,95683.00
2022-08-26T08:21:05.177Z,95684.00
2022-08-26T08:23:42.688Z,95687.00
2022-08-26T08:26:15.425Z,95691.00
2022-08-26T08:28:50.774Z,95679.00
2022-08-26T08:31:56.704Z,95677.00
2022-08-26T08:34:34.811Z,95675.00
2022-08-26T08:37:12.919Z,95673.00
2022-08-26T08:39:52.134Z,95667.00
2022-08-26T08:42:45.422Z,95686.00
2022-08-26T08:45:47.955Z,95677.00
2022-08-26T08:48:22.593Z,95686.00
2022-08-26T08:51:14.170Z,95673.00
2022-08-26T08:53:54.554Z,95687.00
2022-08-26T08:56:33.779Z,95672.00
2022-08-26T08:59:22.103Z,95669.00
2022-08-26T09:02:20.305Z,95678.00
2022-08-26T09:08:06.445Z,95672.00
2022-08-26T09:10:48.263Z,95674.00
2022-08-26T09:13:33.493Z,95665.00
2022-08-26T09:16:14.616Z,95663.00
2022-08-26T09:19:48.739Z,95651.00
2022-08-26T09:22:34.096Z,95656.00
2022-08-26T09:25:11.296Z,95654.00
2022-08-26T09:27:53.144Z,95656.00
2022-08-26T09:31:23.335Z,95660.00
2022-08-26T09:34:10.508Z,95657.00
2022-08-26T09:37:06.841Z,95661.00
2022-08-26T09:39:50.052Z,95649.00
2022-08-26T09:42:33.039Z,95644.00
2022-08-26T09:45:10.866Z,95657.00
2022-08-26T09:47:54.738Z,95644.00
2022-08-26T09:50:59.594Z,95647.00
2022-08-26T09:53:33.090Z,95647.00
2022-08-26T09:56:18.664Z,95644.00
2022-08-26T09:58:57.518Z,95628.00
2022-08-26T10:01:45.641Z,95638.00
2022-08-26T10:04:24.096Z,95629.00
2022-08-26T10:07:53.466Z,95637.00
2022-08-26T10:10:25.659Z,95628.00
2022-08-26T10:13:17.350Z,95636.00
2022-08-26T10:16:12.112Z,95635.00
2022-08-26T10:19:01.148Z,95632.00
2022-08-26T10:21:42.497Z,95631.00
2022-08-26T10:24:16.547Z,95627.00
2022-08-26T10:27:15.902Z,95615.00
2022-08-26T10:29:51.651Z,95603.00
2022-08-26T10:32:32.929Z,95609.00
2022-08-26T10:35:02.255Z,95591.00
2022-08-26T10:37:50.900Z,95596.00
2022-08-26T10:40:55.694Z,95594.00
2022-08-26T10:43:34.816Z,95592.00
2022-08-26T10:46:23.688Z,95587.00
2022-08-26T10:49:14.629Z,95587.00
2022-08-26T10:52:12.450Z,95585.00
2022-08-26T10:54:48.461Z,95595.00
2022-08-26T10:57:40.034Z,95595.00
2022-08-26T11:00:43.852Z,95581.00
2022-08-26T11:03:37.604Z,95579.00
2022-08-26T11:06:26.073Z,95577.00
2022-08-26T11:09:06.458Z,95591.00
2022-08-26T11:11:40.065Z,95596.00
2022-08-26T11:14:29.202Z,95590.00
2022-08-26T11:17:05.893Z,95587.00
2022-08-26T11:20:00.097Z,95597.00
2022-08-26T11:22:54.406Z,95591.00
2022-08-26T11:28:50.680Z,95582.00
2022-08-26T11:31:34.929Z,95586.00
2022-08-26T11:34:11.012Z,95570.00
2022-08-26T11:36:47.503Z,95580.00
2022-08-26T11:39:24.507Z,95581.00
2022-08-26T11:41:57.863Z,95584.00
2022-08-26T11:44:49.231Z,95587.00
2022-08-26T11:47:29.536Z,95594.00
2022-08-26T11:50:23.566Z,95587.00
2022-08-26T11:53:19.190Z,95586.00
2022-08-26T11:55:47.446Z,95592.00
2022-08-26T11:58:20.003Z,95587.00
2022-08-26T12:01:04.042Z,95585.00
2022-08-26T12:03:50.710Z,95570.00
2022-08-26T12:06:32.887Z,95571.00
2022-08-26T12:09:04.147Z,95584.00
2022-08-26T12:11:37.306Z,95585.00
2022-08-26T12:14:21.238Z,95572.00
2022-08-26T12:16:49.330Z,95577.00
2022-08-26T12:19:32.937Z,95575.00
2022-08-26T12:22:28.781Z,95580.00
2022-08-26T12:25:01.347Z,95575.00
2022-08-26T12:27:35.970Z,95577.00
2022-08-26T12:30:19.239Z,95584.00
2022-08-26T12:33:12.500Z,95580.00
2022-08-26T12:35:54.354Z,95596.00
2022-08-26T12:38:46.634Z,95573.00
2022-08-26T12:42:00.863Z,95570.00
2022-08-26T12:45:01.768Z,95560.00
2022-08-26T12:47:42.834Z,95560.00
2022-08-26T12:50:23.290Z,95549.00
2022-08-26T12:52:53.088Z,95546.00
2022-08-26T12:55:33.026Z,95548.00
2022-08-26T12:58:26.268Z,95528.00
2022-08-26T13:01:09.395Z,95523.00
2022-08-26T13:03:40.264Z,95524.00
2022-08-26T13:06:22.194Z,95525.00
2022-08-26T13:09:10.226Z,95519.00
2022-08-26T13:11:40.325Z,95535.00
2022-08-26T13:14:18.439Z,95531.00
2022-08-26T13:16:53.650Z,95530.00
2022-08-26T13:19:24.926Z,95522.00
2022-08-26T13:21:56.894Z,95526.00
2022-08-26T13:24:43.527Z,95515.00
2022-08-26T13:27:14.806Z,95505.00
2022-08-26T13:29:44.370Z,95508.00
2022-08-26T13:32:19.047Z,95498.00
2022-08-26T13:35:10.086Z,95490.00
2022-08-26T13:37:56.538Z,95489.00
2022-08-26T13:40:34.707Z,95486.00
2022-08-26T13:43:02.234Z,95501.00
2022-08-26T13:45:31.116Z,95492.00
2022-08-26T13:48:02.495Z,95498.00
2022-08-26T13:50:33.889Z,95491.00
2022-08-26T13:53:02.308Z,95489.00
2022-08-26T13:55:31.267Z,95485.00
2022-08-26T13:57:58.687Z,95475.00
2022-08-26T14:00:26.451Z,95495.00
2022-08-26T14:02:56.581Z,95486.00
2022-08-26T14:05:24.151Z,95487.00
2022-08-26T14:07:55.142Z,95483.00
2022-08-26T14:10:31.509Z,95482.00
2022-08-26T14:13:15.800Z,95485.00
2022-08-26T14:15:43.540Z,95481.00
2022-08-26T14:18:50.008Z,95476.00
2022-08-26T14:21:21.484Z,95463.00
2022-08-26T14:24:08.938Z,95454.00
2022-08-26T14:30:09.045Z,95464.00
2022-08-26T14:32:39.557Z,95462.00
2022-08-26T14:35:08.653Z,95462.00
2022-08-26T14:37:37.672Z,95453.00
2022-08-26T14:40:06.699Z,95458.00
2022-08-26T14:42:53.864Z,95436.00
2022-08-26T14:45:29.192Z,95428.00
2022-08-26T14:48:13.466Z,95423.00
2022-08-26T14:50:52.932Z,95440.00
2022-08-26T14:53:41.669Z,95434.00
2022-08-26T14:56:10.934Z,95425.00
2022-08-26T14:58:46.584Z,95422.00
2022-08-26T15:01:34.882Z,95424.00
2022-08-26T15:04:15.988Z,95428.00
2022-08-26T15:06:46.052Z,95441.00
2022-08-26T15:09:14.226Z,95449.00
2022-08-26T15:11:41.812Z,95449.00
2022-08-26T15:14:19.675Z,95462.00
2022-08-26T15:16:52.539Z,95464.00
2022-08-26T15:19:20.968Z,95472.00
2022-08-26T15:21:53.458Z,95465.00
2022-08-26T15:24:33.415Z,95452.00
2022-08-26T15:27:18.162Z,95458.00
2022-08-26T15:29:52.656Z,95452.00
2022-08-26T15:32:20.806Z,95452.00
2022-08-26T15:35:00.617Z,95438.00
2022-08-26T15:37:28.370Z,95440.00
2022-08-26T15:39:56.939Z,95433.00
2022-08-26T15:42:44.795Z,95423.00
2022-08-26T15:45:25.857Z,95420.00
2022-08-26T15:48:01.407Z,95425.00
2022-08-26T15:50:36.267Z,95427.00
2022-08-26T15:53:05.676Z,95418.00
2022-08-26T15:55:36.178Z,95422.00
2022-08-26T15:58:10.715Z,95424.00
2022-08-26T16:00:39.416Z,95418.00
2022-08-26T16:03:07.748Z,95414.00
2022-08-26T16:05:41.010Z,95416.00
2022-08-26T16:08:09.837Z,95425.00
2022-08-26T16:10:49.206Z,95435.00
2022-08-26T16:13:43.392Z,95439.00
2022-08-26T16:16:16.696Z,95429.00
2022-08-26T16:18:46.567Z,95441.00
2022-08-26T16:21:25.607Z,95434.00
2022-08-26T16:23:52.945Z,95434.00
2022-08-26T16:26:28.112Z,95446.00
2022-08-26T16:28:56.048Z,95441.00
2022-08-26T16:31:25.439Z,95444.00
2022-08-26T16:33:53.135Z,95450.00
2022-08-26T16:36:20.396Z,95446.00
2022-08-26T16:38:55.319Z,95451.00
2022-08-26T16:41:32.487Z,95445.00
2022-08-26T16:44:00.627Z,95465.00
2022-08-26T16:46:29.497Z,95454.00
2022-08-26T16:51:44.998Z,95458.00
2022-08-26T16:54:31.372Z,95467.00
2022-08-26T16:56:58.970Z,95458.00
2022-08-26T16:59:26.607Z,95460.00
2022-08-26T17:01:54.881Z,95473.00
2022-08-26T17:04:22.258Z,95467.00
2022-08-26T17:06:51.876Z,95481.00
2022-08-26T17:09:24.978Z,95487.00
2022-08-26T17:11:56.597Z,95500.00
2022-08-26T17:14:26.482Z,95496.00
2022-08-26T17:16:57.149Z,95496.00
2022-08-26T17:19:29.613Z,95496.00
2022-08-26T17:22:05.632Z,95498.00
2022-08-26T17:24:37.034Z,95509.00
2022-08-26T17:27:07.903Z,95508.00
2022-08-26T17:29:38.738Z,95511.00
2022-08-26T17:32:16.818Z,95491.00
2022-08-26T17:34:49.074Z,95506.00
2022-08-26T17:37:21.925Z,95501.00
2022-08-26T17:39:53.051Z,95519.00
2022-08-26T17:42:31.335Z,95518.00
2022-08-26T17:44:59.087Z,95516.00
2022-08-26T17:47:26.576Z,95509.00
2022-08-26T17:49:56.247Z,95520.00
2022-08-26T17:52:23.930Z,95520.00
2022-08-26T17:54:58.407Z,95520.00
2022-08-26T17:57:40.572Z,95515.00
2022-08-26T18:00:20.088Z,95528.00
2022-08-26T18:02:53.803Z,95530.00
2022-08-26T18:05:22.318Z,95543.00
2022-08-26T18:07:50.024Z,95534.00
2022-08-26T18:10:20.339Z,95533.00
2022-08-26T18:12:48.599Z,95537.00
2022-08-26T18:15:17.597Z,95526.00
2022-08-26T18:17:47.377Z,95527.00
2022-08-26T18:20:29.220Z,95532.00
2022-08-26T18:23:02.346Z,95535.00
2022-08-26T18:25:36.769Z,95536.00
2022-08-26T18:28:04.427Z,95546.00
2022-08-26T18:30:31.955Z,95559.00
2022-08-26T18:32:59.210Z,95565.00
2022-08-26T18:35:28.826Z,95576.00
2022-08-26T18:37:57.508Z,95581.00
2022-08-26T18:40:30.641Z,95592.00
2022-08-26T18:42:58.101Z,95593.00
2022-08-26T18:45:26.380Z,95602.00
2022-08-26T18:47:55.960Z,95612.00
2022-08-26T18:50:26.438Z,95607.00
2022-08-26T18:52:57.022Z,95616.00
2022-08-26T18:55:30.940Z,95610.00
2022-08-26T18:58:01.455Z,95627.00
2022-08-26T19:00:29.183Z,95621.00
2022-08-26T19:02:57.285Z,95629.00
2022-08-26T19:05:25.851Z,95636.00
2022-08-26T19:07:57.803Z,95623.00
2022-08-26T19:10:25.271Z,95634.00
2022-08-26T19:12:53.712Z,95623.00
2022-08-26T19:15:23.056Z,95614.00
2022-08-26T19:17:51.060Z,95617.00
2022-08-26T19:20:22.627Z,95610.00
2022-08-26T19:22:52.541Z,95613.00
2022-08-26T19:25:25.576Z,95608.00
2022-08-26T19:28:20.532Z,95614.00
2022-08-26T19:30:53.185Z,95624.00
2022-08-26T19:33:21.920Z,95617.00
2022-08-26T19:35:49.438Z,95621.00
2022-08-26T19:38:16.817Z,95611.00
2022-08-26T19:40:47.625Z,95601.00
2022-08-26T19:43:20.863Z,95608.00
2022-08-26T19:45:55.379Z,95611.00
2022-08-26T19:48:25.967Z,95616.00
2022-08-26T19:50:56.028Z,95626.00
2022-08-26T19:53:28.522Z,95618.00
2022-08-26T19:55:58.412Z,95616.00
2022-08-26T19:58:25.937Z,95617.00
2022-08-26T20:00:53.570Z,95614.00
2022-08-26T20:03:20.997Z,95605.00
2022-08-26T20:05:49.459Z,95605.00
2022-08-26T20:08:22.441Z,95602.00
2022-08-26T20:10:59.001Z,95603.00
2022-08-26T20:13:40.440Z,95592.00
2022-08-26T20:16:11.265Z,95588.00
2022-08-26T20:19:02.727Z,95582.00
2022-08-26T20:21:41.506Z,95597.00
2022-08-26T20:24:23.807Z,95586.00
2022-08-26T20:26:54.955Z,95587.00
2022-08-26T20:29:39.371Z,95582.00
2022-08-26T20:32:13.835Z,95577.00
2022-08-26T20:34:50.837Z,95586.00
2022-08-26T20:37:26.972Z,95575.00
2022-08-26T20:39:57.217Z,95582.00
2022-08-26T20:45:25.421Z,95589.00
2022-08-26T20:47:59.290Z,95585.00
2022-08-26T20:50:33.430Z,95597.00
2022-08-26T20:53:02.419Z,95591.00
2022-08-26T20:55:30.884Z,95597.00
2022-08-26T20:58:00.850Z,95600.00
2022-08-26T21:00:29.127Z,95607.00
2022-08-26T21:02:57.718Z,95604.00
2022-08-26T21:05:26.529Z,95606.00
2022-08-26T21:07:53.923Z,95603.00
2022-08-26T21:10:21.700Z,95599.00
2022-08-26T21:12:53.333Z,95594.00
2022-08-26T21:15:20.855Z,95582.00
2022-08-26T21:17:48.850Z,95581.00
2022-08-26T21:20:17.441Z,95580.00
2022-08-26T21:22:48.030Z,95582.00
2022-08-26T21:25:34.543Z,95585.00
2022-08-26T21:28:02.000Z,95604.00
2022-08-26T21:30:30.626Z,95602.00
2022-08-26T21:32:58.666Z,95608.00
2022-08-26T21:35:26.652Z,95611.00
2022-08-26T21:37:54.447Z,95615.00
2022-08-26T21:40:23.881Z,95612.00
2022-08-26T21:42:51.689Z,95617.00
2022-08-26T21:45:19.240Z,95630.00
2022-08-26T21:47:46.863Z,95627.00
2022-08-26T21:50:15.130Z,95636.00
2022-08-26T21:52:42.372Z,95642.00
2022-08-26T21:55:11.573Z,95642.00
2022-08-26T21:57:39.259Z,95641.00
2022-08-26T22:00:09.803Z,95632.00
2022-08-26T22:02:38.550Z,95636.00
2022-08-26T22:05:06.773Z,95647.00
2022-08-26T22:07:34.382Z,95642.00
2022-08-26T22:10:02.322Z,95646.00
2022-08-26T22:12:29.668Z,95636.00
2022-08-26T22:14:59.457Z,95657.00
2022-08-26T22:17:29.835Z,95655.00
2022-08-26T22:19:57.854Z,95660.00
2022-08-26T22:22:26.615Z,95666.00
2022-08-26T22:24:53.739Z,95681.00
2022-08-26T22:27:21.190Z,95674.00
2022-08-26T22:29:48.740Z,95684.00
2022-08-26T22:32:16.613Z,95674.00
2022-08-26T22:34:44.912Z,95690.00
2022-08-26T22:37:12.563Z,95699.00
2022-08-26T22:39:39.958Z,95702.00
2022-08-26T22:42:08.487Z,95710.00
2022-08-26T22:44:37.576Z,95716.00
2022-08-26T22:47:05.414Z,95716.00
2022-08-26T22:49:32.549Z,95728.00
2022-08-26T22:52:00.081Z,95722.00
2022-08-26T22:57:16.061Z,95731.00
2022-08-26T22:59:43.389Z,95735.00
2022-08-26T23:02:12.864Z,95728.00
2022-08-26T23:04:40.596Z,95709.00
2022-08-26T23:07:08.518Z,95714.00
2022-08-26T23:09:35.955Z,95718.00
2022-08-26T23:12:03.722Z,95719.00
2022-08-26T23:14:32.796Z,95715.00
2022-08-26T23:17:00.202Z,95714.00
2022-08-26T23:19:28.147Z,95716.00
2022-08-26T23:21:56.489Z,95709.00
2022-08-26T23:24:23.722Z,95724.00
2022-08-26T23:26:51.827Z,95720.00
2022-08-26T23:29:19.010Z,95711.00
2022-08-26T23:31:46.452Z,95711.00
2022-08-26T23:34:33.003Z,95716.00
2022-08-26T23:37:01.171Z,95696.00
2022-08-26T23:39:31.971Z,95703.00
2022-08-26T23:42:01.964Z,95707.00
2022-08-26T23:44:30.624Z,95700.00
2022-08-26T23:47:02.107Z,95703.00
2022-08-26T23:49:33.426Z,95696.00
2022-08-26T23:52:19.500Z,95695.00
2022-08-26T23:54:49.229Z,95696.00
2022-08-26T23:57:19.694Z,95701.00
2022-08-26T23:59:48.469Z,95696.00
